Time;durP1;ratioP1;P1;durP2;ratioP2;P2;SDS_P1;SDS_P2;PMS_P1;PMS_P2;Temp;Humidity;BMP_temperature;BMP_pressure;BME280_temperature;BME280_humidity;BME280_pressure;Samples;Min_cycle;Max_cycle;Signal;HPM_P1;HPM_P2
2021/11/18 00:01:33;;;;;;;45.08;24.17;;;4.80;99.90;;;;;;6165258;28;20556;-82
2021/11/18 00:04:33;;;;;;;9.90;7.65;;;4.70;99.90;;;;;;6165213;28;20030;-82
2021/11/18 00:07:34;;;;;;;7.25;5.88;;;4.20;99.90;;;;;;6165075;28;20031;-82
2021/11/18 00:10:39;;;;;;;7.65;5.55;;;5.00;99.90;;;;;;6181224;28;20105;-82
2021/11/18 00:13:42;;;;;;;6.85;5.22;;;4.90;99.90;;;;;;6164823;28;20026;-82
2021/11/18 00:16:43;;;;;;;8.68;5.65;;;4.70;99.90;;;;;;6151692;28;20034;-80
2021/11/18 00:19:43;;;;;;;7.20;5.60;;;5.00;99.90;;;;;;6180864;28;20449;-82
2021/11/18 00:22:44;;;;;;;7.63;5.30;;;4.50;99.90;;;;;;6180507;28;20038;-81
2021/11/18 00:25:45;;;;;;;6.10;5.00;;;4.70;99.90;;;;;;6180634;28;20113;-82
2021/11/18 00:28:46;;;;;;;6.43;5.22;;;4.90;99.90;;;;;;6180505;28;20026;-82
2021/11/18 00:31:46;;;;;;;7.35;5.35;;;4.80;99.90;;;;;;6164116;28;20034;-82
2021/11/18 00:34:47;;;;;;;6.50;5.43;;;4.70;99.90;;;;;;6164393;28;20026;-82
2021/11/18 00:37:48;;;;;;;7.07;5.05;;;;;;;;;;6180576;28;20042;-82
2021/11/18 00:40:53;;;;;;;6.22;5.22;;;4.60;99.90;;;;;;6180390;28;20039;-82
2021/11/18 00:43:54;;;;;;;7.65;5.38;;;5.00;99.90;;;;;;6163769;28;20053;-82
2021/11/18 00:46:54;;;;;;;6.38;5.28;;;4.70;99.90;;;;;;6180028;28;20492;-83
2021/11/18 00:49:55;;;;;;;6.35;4.72;;;;;;;;;;6179953;28;20041;-83
2021/11/18 00:52:56;;;;;;;8.93;6.38;;;;;;;;;;6182837;28;20030;-85
2021/11/18 00:55:57;;;;;;;7.40;5.68;;;;;;;;;;6197731;28;20105;-87
2021/11/18 00:58:59;;;;;;;7.15;5.35;;;;;;;;;;6180047;28;20035;-84
2021/11/18 01:01:59;;;;;;;7.22;5.55;;;4.80;99.90;;;;;;6179816;28;20455;-82
2021/11/18 01:05:00;;;;;;;6.80;5.40;;;5.00;99.90;;;;;;6179810;28;20026;-82
2021/11/18 01:08:01;;;;;;;6.07;5.32;;;5.00;99.90;;;;;;6179257;28;20077;-83
2021/11/18 01:11:05;;;;;;;8.00;4.97;;;5.00;99.90;;;;;;6179503;28;20464;-82
2021/11/18 01:14:07;;;;;;;8.43;5.95;;;5.00;99.90;;;;;;6168170;28;20536;-83
2021/11/18 01:17:07;;;;;;;8.20;5.50;;;5.30;99.90;;;;;;6164213;28;20058;-83
2021/11/18 01:20:09;;;;;;;6.70;5.22;;;5.10;99.90;;;;;;6179450;28;20060;-84
2021/11/18 01:23:12;;;;;;;7.35;4.90;;;5.00;99.90;;;;;;6163043;28;20041;-82
2021/11/18 01:26:14;;;;;;;7.13;5.45;;;5.10;99.90;;;;;;6179154;28;20038;-82
2021/11/18 01:29:15;;;;;;;6.40;5.25;;;5.10;99.90;;;;;;6162647;28;20031;-84
2021/11/18 01:32:15;;;;;;;6.60;5.00;;;5.70;99.90;;;;;;6163093;28;20036;-83
2021/11/18 01:35:16;;;;;;;6.45;5.35;;;5.10;99.90;;;;;;6162812;28;20030;-84
2021/11/18 01:38:17;;;;;;;6.43;5.30;;;5.00;99.90;;;;;;6162792;28;20064;-83
2021/11/18 01:41:20;;;;;;;6.63;5.20;;;6.10;99.90;;;;;;6162665;28;20038;-82
2021/11/18 01:44:33;;;;;;;6.22;5.15;;;4.80;99.90;;;;;;6162303;28;20027;-84
2021/11/18 01:47:33;;;;;;;8.50;5.32;;;5.10;99.90;;;;;;6162788;28;20485;-85
2021/11/18 01:50:35;;;;;;;5.93;4.68;;;4.90;99.90;;;;;;6178677;28;20035;-84
2021/11/18 01:53:38;;;;;;;5.72;4.85;;;5.10;99.90;;;;;;6164046;28;20078;-82
2021/11/18 01:56:39;;;;;;;6.47;5.18;;;4.80;99.90;;;;;;6162202;28;20376;-81
2021/11/18 01:59:41;;;;;;;7.25;5.53;;;5.00;99.90;;;;;;6178375;28;20041;-84
2021/11/18 02:02:42;;;;;;;6.85;5.18;;;5.00;99.90;;;;;;6162388;28;20034;-85
2021/11/18 02:05:58;;;;;;;11.85;6.72;;;5.00;99.90;;;;;;6161835;28;20045;-82
2021/11/18 02:08:59;;;;;;;8.50;6.28;;;6.40;99.90;;;;;;6178375;28;20069;-85
2021/11/18 02:12:06;;;;;;;9.27;5.90;;;5.30;99.90;;;;;;6161900;28;20065;-82
2021/11/18 02:15:23;;;;;;;6.50;5.30;;;5.30;99.90;;;;;;6178011;28;20040;-82
2021/11/18 02:18:24;;;;;;;8.40;5.45;;;5.30;99.90;;;;;;6161840;28;20045;-82
2021/11/18 02:21:25;;;;;;;6.97;5.53;;;6.20;99.90;;;;;;6177495;28;20030;-83
2021/11/18 02:24:28;;;;;;;11.27;7.32;;;5.30;99.90;;;;;;6161591;28;20029;-83
2021/11/18 02:27:30;;;;;;;7.30;6.10;;;5.40;99.90;;;;;;6177519;28;20426;-82
2021/11/18 02:30:33;;;;;;;8.68;5.20;;;5.30;99.90;;;;;;6161455;28;20125;-82
2021/11/18 02:33:34;;;;;;;6.15;5.18;;;5.30;99.90;;;;;;6161499;28;20022;-83
2021/11/18 02:36:35;;;;;;;6.53;5.15;;;;;;;;;;6161404;28;20073;-83
2021/11/18 02:39:36;;;;;;;6.90;5.13;;;5.30;99.90;;;;;;6179008;28;20081;-83
2021/11/18 02:42:37;;;;;;;12.30;9.65;;;;;;;;;;6161628;28;20034;-83
2021/11/18 02:45:38;;;;;;;11.82;9.05;;;;;;;;;;6177339;28;20412;-83
2021/11/18 02:48:38;;;;;;;8.85;7.13;;;5.10;99.90;;;;;;6177379;28;20035;-83
2021/11/18 02:51:39;;;;;;;8.57;7.25;;;6.20;99.90;;;;;;6177170;28;20037;-83
2021/11/18 02:54:40;;;;;;;8.82;5.72;;;5.00;99.90;;;;;;6177363;28;20059;-83
2021/11/18 02:57:41;;;;;;;6.53;5.45;;;;;;;;;;6176870;28;20042;-85
2021/11/18 03:00:47;;;;;;;6.25;5.47;;;5.10;99.90;;;;;;6160919;28;20032;-83
2021/11/18 03:03:47;;;;;;;5.78;4.65;;;5.00;99.90;;;;;;6177294;28;20026;-83
2021/11/18 03:06:48;;;;;;;5.32;4.72;;;5.20;99.90;;;;;;6177372;28;20105;-82
2021/11/18 03:09:49;;;;;;;6.32;5.18;;;;;;;;;;6160716;28;20041;-86
2021/11/18 03:12:50;;;;;;;7.53;4.72;;;;;;;;;;6161291;28;20037;-83
2021/11/18 03:15:51;;;;;;;6.85;5.10;;;5.20;99.90;;;;;;6176803;28;20030;-84
2021/11/18 03:18:52;;;;;;;5.40;4.40;;;;;;;;;;6160423;28;20072;-86
2021/11/18 03:21:53;;;;;;;6.40;5.20;;;;;;;;;;6177304;28;20042;-83
2021/11/18 03:24:53;;;;;;;5.45;4.65;;;5.00;99.90;;;;;;6160517;28;20029;-82
2021/11/18 03:27:54;;;;;;;6.05;4.70;;;;;;;;;;6176643;28;20030;-84
2021/11/18 03:30:55;;;;;;;6.10;5.38;;;;;;;;;;6178206;28;20208;-85
2021/11/18 03:34:06;;;;;;;5.13;4.63;;;5.30;99.90;;;;;;6182166;28;20061;-83
2021/11/18 03:37:07;;;;;;;7.70;4.93;;;5.20;99.90;;;;;;6165235;28;20052;-86
2021/11/18 03:40:08;;;;;;;5.88;4.90;;;5.30;99.90;;;;;;6181899;28;20034;-85
2021/11/18 03:43:09;;;;;;;6.28;5.05;;;5.20;99.90;;;;;;6165610;28;20045;-82
2021/11/18 03:46:10;;;;;;;6.43;4.85;;;7.20;99.90;;;;;;6165102;28;20054;-83
2021/11/18 03:49:11;;;;;;;5.53;4.85;;;;;;;;;;6165209;28;20532;-83
2021/11/18 03:52:13;;;;;;;4.97;4.47;;;5.30;99.90;;;;;;6181496;28;20034;-86
2021/11/18 03:55:14;;;;;;;6.63;5.05;;;5.20;99.90;;;;;;6181859;28;20109;-83
2021/11/18 03:58:15;;;;;;;8.13;4.88;;;5.30;99.90;;;;;;6181149;28;20050;-83
2021/11/18 04:01:16;;;;;;;5.50;4.63;;;5.20;99.90;;;;;;6165168;28;20026;-82
2021/11/18 04:04:19;;;;;;;6.07;4.53;;;5.30;99.90;;;;;;6180755;28;20069;-83
2021/11/18 04:07:20;;;;;;;6.80;4.50;;;5.30;99.90;;;;;;6164710;28;20034;-83
2021/11/18 04:10:23;;;;;;;5.53;4.38;;;5.60;99.90;;;;;;6181280;28;20034;-87
2021/11/18 04:13:24;;;;;;;4.90;4.38;;;5.40;99.90;;;;;;6181077;28;20440;-83
2021/11/18 04:16:25;;;;;;;6.18;4.68;;;;;;;;;;6164619;28;20077;-83
2021/11/18 04:19:26;;;;;;;6.30;4.93;;;;;;;;;;6164846;28;20030;-83
2021/11/18 04:22:26;;;;;;;5.18;4.43;;;5.40;99.90;;;;;;6164521;28;20404;-84
2021/11/18 04:25:29;;;;;;;5.68;4.25;;;5.40;99.90;;;;;;6164580;28;20038;-84
2021/11/18 04:28:30;;;;;;;;;;;5.40;99.90;;;;;;6181721;28;20037;-84
2021/11/18 04:31:30;;;;;;;6.15;5.10;;;5.30;99.90;;;;;;6180260;28;19938;-87
2021/11/18 04:34:31;;;;;;;7.53;6.75;;;6.60;99.90;;;;;;6164442;28;20073;-83
2021/11/18 04:37:32;;;;;;;8.48;6.65;;;5.20;99.90;;;;;;6164023;28;20581;-83
2021/11/18 04:40:33;;;;;;;6.35;5.07;;;;;;;;;;6164109;28;20034;-83
2021/11/18 04:43:34;;;;;;;6.10;5.03;;;5.40;99.90;;;;;;6179419;28;20048;-83
2021/11/18 04:46:35;;;;;;;5.55;4.35;;;;;;;;;;6163924;28;20066;-83
2021/11/18 04:49:37;;;;;;;10.73;7.95;;;;;;;;;;6196479;28;20041;-86
2021/11/18 04:52:37;;;;;;;6.65;5.00;;;5.30;99.90;;;;;;6164053;28;20523;-82
2021/11/18 04:55:38;;;;;;;6.00;4.47;;;;;;;;;;6164097;28;20144;-82
2021/11/18 04:58:40;;;;;;;6.45;4.22;;;;;;;;;;6179820;28;20473;-83
2021/11/18 05:01:41;;;;;;;6.10;4.20;;;;;;;;;;6163689;28;20022;-82
2021/11/18 05:04:42;;;;;;;7.28;4.70;;;;;;;;;;6179308;28;20105;-82
2021/11/18 05:07:42;;;;;;;7.15;5.47;;;5.40;99.90;;;;;;6163798;28;20114;-82
2021/11/18 05:10:47;;;;;;;5.30;4.68;;;5.20;99.90;;;;;;6179232;28;20447;-83
2021/11/18 05:13:48;;;;;;;5.60;5.00;;;5.30;99.90;;;;;;6179825;28;20031;-85
2021/11/18 05:16:49;;;;;;;5.30;4.70;;;;;;;;;;6163266;28;20092;-84
2021/11/18 05:19:50;;;;;;;7.63;6.22;;;;;;;;;;6179546;28;20026;-87
2021/11/18 05:22:51;;;;;;;9.32;6.53;;;;;;;;;;6179363;28;20030;-83
2021/11/18 05:25:52;;;;;;;12.45;8.70;;;5.40;99.90;;;;;;6179591;28;20026;-83
2021/11/18 05:28:53;;;;;;;9.48;6.95;;;5.10;99.90;;;;;;6179473;28;20029;-84
2021/11/18 05:31:56;;;;;;;7.88;6.07;;;5.40;99.90;;;;;;6179520;28;20130;-83
2021/11/18 05:34:59;;;;;;;12.90;8.95;;;5.10;99.90;;;;;;6162610;28;20093;-82
2021/11/18 05:38:00;;;;;;;5.90;5.22;;;5.00;99.90;;;;;;6162123;28;20046;-81
2021/11/18 05:41:01;;;;;;;7.15;5.05;;;5.20;99.90;;;;;;6162612;28;20435;-84
2021/11/18 05:44:04;;;;;;;10.20;8.70;;;5.30;99.90;;;;;;6178410;28;20080;-81
2021/11/18 05:47:04;;;;;;;10.98;9.63;;;5.20;99.90;;;;;;6162656;28;20058;-82
2021/11/18 05:50:06;;;;;;;5.63;4.75;;;5.10;99.90;;;;;;6178443;28;20022;-83
2021/11/18 05:53:07;;;;;;;9.07;4.80;;;5.00;99.90;;;;;;6161753;28;20597;-81
2021/11/18 05:56:10;;;;;;;7.55;4.10;;;5.10;99.90;;;;;;6178982;28;20030;-82
2021/11/18 05:59:11;;;;;;;5.70;4.38;;;5.20;99.90;;;;;;6178653;28;20027;-83
2021/11/18 06:02:12;;;;;;;5.97;5.00;;;5.30;99.90;;;;;;6178807;28;20038;-84
2021/11/18 06:05:14;;;;;;;6.80;5.00;;;;;;;;;;6178398;28;20046;-83
2021/11/18 06:08:15;;;;;;;8.20;4.78;;;;;;;;;;6178752;28;20770;-85
2021/11/18 06:11:16;;;;;;;6.93;4.80;;;5.40;99.90;;;;;;6178350;28;20029;-82
2021/11/18 06:14:17;;;;;;;6.13;4.88;;;;;;;;;;6178063;28;20034;-82
2021/11/18 06:17:18;;;;;;;12.02;9.93;;;5.40;99.90;;;;;;6177948;28;20559;-83
2021/11/18 06:20:19;;;;;;;7.53;5.15;;;5.40;99.90;;;;;;6177881;28;20042;-82
2021/11/18 06:23:20;;;;;;;7.90;5.05;;;;;;;;;;6177952;28;20427;-82
2021/11/18 06:26:24;;;;;;;6.85;4.72;;;;;;;;;;6177191;28;20045;-83
2021/11/18 06:29:29;;;;;;;6.90;4.60;;;;;;;;;;6162164;28;20085;-81
2021/11/18 06:32:30;;;;;;;8.98;6.30;;;5.30;99.90;;;;;;6178135;28;20030;-83
2021/11/18 06:35:31;;;;;;;7.10;5.82;;;5.30;99.90;;;;;;6177450;28;20118;-82
2021/11/18 06:38:32;;;;;;;9.43;6.68;;;;;;;;;;6176974;28;20042;-82
2021/11/18 06:42:01;;;;;;;8.25;6.05;;;5.20;99.90;;;;;;6176531;28;20097;-82
2021/11/18 06:45:01;;;;;;;8.30;6.22;;;5.30;99.90;;;;;;6176875;28;20145;-81
2021/11/18 06:48:04;;;;;;;8.25;6.20;;;5.20;99.90;;;;;;6177581;28;20038;-80
2021/11/18 06:51:11;;;;;;;10.27;6.43;;;5.30;99.90;;;;;;6160864;28;20088;-81
2021/11/18 06:54:12;;;;;;;8.38;5.97;;;5.40;99.90;;;;;;6177104;28;20480;-81
2021/11/18 06:57:13;;;;;;;8.70;5.50;;;5.40;99.90;;;;;;6176846;28;20084;-83
2021/11/18 07:00:14;;;;;;;8.38;5.95;;;;;;;;;;6161166;28;20406;-81
2021/11/18 07:03:14;;;;;;;8.52;5.60;;;5.60;99.90;;;;;;6194698;28;20054;-81
2021/11/18 07:06:16;;;;;;;8.77;6.25;;;5.40;99.90;;;;;;6177602;28;20030;-83
2021/11/18 07:09:17;;;;;;;9.75;6.95;;;5.40;99.90;;;;;;6176812;28;20043;-84
2021/11/18 07:12:18;;;;;;;8.90;6.53;;;;;;;;;;6160995;28;20042;-83
2021/11/18 07:15:19;;;;;;;10.18;6.85;;;5.50;99.90;;;;;;6161776;28;20030;-83
2021/11/18 07:18:23;;;;;;;7.88;6.18;;;5.70;99.90;;;;;;6161139;28;20473;-86
2021/11/18 07:21:24;;;;;;;10.88;5.97;;;5.40;99.90;;;;;;6161221;28;20125;-83
2021/11/18 07:24:25;;;;;;;8.07;5.75;;;5.70;99.90;;;;;;6176772;28;20140;-81
2021/11/18 07:27:26;;;;;;;7.63;5.95;;;;;;;;;;6176358;28;20031;-82
2021/11/18 07:30:27;;;;;;;8.32;6.07;;;;;;;;;;6160951;28;20422;-82
2021/11/18 07:33:28;;;;;;;11.90;6.70;;;;;;;;;;6176742;28;20101;-83
2021/11/18 07:36:29;;;;;;;12.10;7.78;;;;;;;;;;6176530;28;20125;-83
2021/11/18 07:39:30;;;;;;;9.95;7.35;;;5.70;99.90;;;;;;6177115;28;20065;-84
2021/11/18 07:42:32;;;;;;;10.10;7.35;;;5.70;99.90;;;;;;6160344;28;20496;-83
2021/11/18 07:45:33;;;;;;;10.85;7.10;;;;;;;;;;6176721;28;20043;-81
2021/11/18 07:48:33;;;;;;;7.88;6.25;;;5.90;99.90;;;;;;6194213;28;20465;-83
2021/11/18 07:51:36;;;;;;;8.40;6.25;;;6.00;99.90;;;;;;6176516;28;20033;-83
2021/11/18 07:54:37;;;;;;;10.90;7.97;;;;;;;;;;6160906;28;20034;-81
2021/11/18 07:57:38;;;;;;;12.88;7.50;;;5.90;99.90;;;;;;6192503;28;20112;-83
2021/11/18 08:00:39;;;;;;;9.60;6.60;;;6.20;99.90;;;;;;6176547;28;20034;-83
2021/11/18 08:03:40;;;;;;;9.38;6.75;;;;;;;;;;6176690;28;20488;-82
2021/11/18 08:06:41;;;;;;;9.63;6.70;;;6.20;99.90;;;;;;6176871;28;20039;-81
2021/11/18 08:09:57;;;;;;;8.48;6.90;;;6.20;99.90;;;;;;6160884;28;20070;-82
2021/11/18 08:12:57;;;;;;;8.25;6.70;;;7.20;99.90;;;;;;6178934;28;20030;-82
2021/11/18 08:15:58;;;;;;;10.77;6.80;;;6.40;99.90;;;;;;6160122;28;20041;-84
2021/11/18 08:18:58;;;;;;;12.20;6.70;;;6.40;99.90;;;;;;6180401;28;20093;-84
2021/11/18 08:21:59;;;;;;;9.68;6.45;;;;;;;;;;6180955;28;20030;-82
2021/11/18 08:25:00;;;;;;;11.23;8.00;;;6.80;99.90;;;;;;6180751;28;20553;-82
2021/11/18 08:28:01;;;;;;;9.60;7.10;;;;;;;;;;6164510;28;20472;-82
2021/11/18 08:31:02;;;;;;;8.57;6.65;;;7.20;99.90;;;;;;6164103;28;20440;-82
2021/11/18 08:34:03;;;;;;;10.65;6.85;;;;;;;;;;6180628;28;20058;-84
2021/11/18 08:37:04;;;;;;;11.25;7.63;;;7.60;99.90;;;;;;6180050;28;20038;-82
2021/11/18 08:40:05;;;;;;;12.00;8.23;;;7.70;99.90;;;;;;6180388;28;20038;-83
2021/11/18 08:43:07;;;;;;;10.77;7.35;;;;;;;;;;6180557;28;20034;-81
2021/11/18 08:46:08;;;;;;;9.75;7.22;;;7.90;99.90;;;;;;6180004;28;20050;-82
2021/11/18 08:49:08;;;;;;;11.00;7.55;;;8.20;99.90;;;;;;6179811;28;20034;-81
2021/11/18 08:52:11;;;;;;;10.88;7.03;;;8.40;99.90;;;;;;6179833;28;20022;-81
2021/11/18 08:55:14;;;;;;;;;;;8.50;99.90;;;;;;6180715;28;20095;-81
2021/11/18 08:58:16;;;;;;;7.07;5.78;;;8.70;99.90;;;;;;6179549;28;19920;-81
2021/11/18 09:01:21;;;;;;;;;;;8.80;99.90;;;;;;6164061;28;20117;-84
2021/11/18 09:04:23;;;;;;;7.40;5.65;;;9.20;99.90;;;;;;6179634;28;19910;-82
2021/11/18 09:07:24;;;;;;;8.40;6.37;;;;;;;;;;6179733;28;20038;-83
2021/11/18 09:10:25;;;;;;;9.80;6.07;;;;;;;;;;6197241;28;20469;-82
2021/11/18 09:13:26;;;;;;;7.95;6.25;;;9.10;99.90;;;;;;6179928;28;20109;-82
2021/11/18 09:16:27;;;;;;;9.30;6.15;;;9.10;99.90;;;;;;6163181;28;20036;-81
2021/11/18 09:19:30;;;;;;;7.47;5.35;;;9.00;99.90;;;;;;6179640;28;20113;-84
2021/11/18 09:22:31;;;;;;;9.60;6.07;;;9.20;99.90;;;;;;6179235;28;20033;-82
2021/11/18 09:25:36;;;;;;;8.75;5.43;;;9.30;99.90;;;;;;6179432;28;20532;-83
2021/11/18 09:28:36;;;;;;;9.10;5.35;;;9.50;99.90;;;;;;6178805;28;20019;-80
2021/11/18 09:31:37;;;;;;;6.28;4.80;;;;;;;;;;6197105;28;20600;-80
2021/11/18 09:34:38;;;;;;;6.53;5.25;;;10.40;99.90;;;;;;6196457;28;20236;-81
2021/11/18 09:37:39;;;;;;;5.55;4.68;;;11.00;99.90;;;;;;6162374;28;20046;-82
2021/11/18 09:40:48;;;;;;;6.35;4.68;;;11.10;99.90;;;;;;6178834;28;20041;-82
2021/11/18 09:44:13;;;;;;;10.00;4.50;;;11.70;99.90;;;;;;6163055;28;20642;-80
2021/11/18 09:47:25;;;;;;;5.60;4.30;;;12.10;99.90;;;;;;6195970;28;20070;-83
2021/11/18 09:50:41;;;;;;;7.03;4.67;;;12.60;99.90;;;;;;6179465;28;20109;-82
2021/11/18 09:54:10;;;;;;;6.57;4.68;;;13.10;99.90;;;;;;6179010;28;20261;-84
2021/11/18 09:57:14;;;;;;;6.30;4.28;;;14.10;99.90;;;;;;6178391;28;20452;-80
2021/11/18 10:00:32;;;;;;;4.68;3.85;;;14.40;99.90;;;;;;6195179;28;20417;-80
2021/11/18 10:03:55;;;;;;;5.50;4.00;;;14.60;99.90;;;;;;6178107;28;20076;-80
2021/11/18 10:06:57;;;;;;;;;;;14.70;99.90;;;;;;6179130;28;20069;-81
2021/11/18 10:10:16;;;;;;;5.43;3.47;;;14.80;99.90;;;;;;6178152;28;20000;-82
2021/11/18 10:13:42;;;;;;;4.68;3.70;;;14.90;99.90;;;;;;6195253;28;20109;-82
2021/11/18 10:20:31;;;;;;;4.07;2.92;;;14.80;99.90;;;;;;6184861;28;20489;-83
2021/11/18 10:23:32;;;;;;;3.40;3.05;;;15.20;98.50;;;;;;6177758;28;20096;-83
2021/11/18 10:26:36;;;;;;;5.43;3.70;;;14.90;99.30;;;;;;6161549;28;20027;-82
2021/11/18 10:30:00;;;;;;;4.75;3.70;;;15.00;99.40;;;;;;6161549;28;20078;-81
2021/11/18 10:33:11;;;;;;;5.40;3.30;;;15.10;99.90;;;;;;6180725;28;20034;-80
2021/11/18 10:36:34;;;;;;;4.07;3.45;;;15.00;99.50;;;;;;6178183;28;20030;-82
2021/11/18 10:39:55;;;;;;;5.78;3.85;;;15.20;99.90;;;;;;6160628;28;20536;-81
2021/11/18 10:43:02;;;;;;;6.68;3.45;;;15.00;99.90;;;;;;6177312;28;20034;-84
2021/11/18 10:46:14;;;;;;;5.53;3.80;;;14.90;99.90;;;;;;6177326;28;20050;-82
2021/11/18 10:49:17;;;;;;;8.57;4.72;;;15.10;99.90;;;;;;6177561;28;20492;-83
2021/11/18 10:52:29;;;;;;;5.35;4.30;;;14.70;99.90;;;;;;6177274;28;20081;-83
2021/11/18 10:55:37;;;;;;;7.65;4.97;;;14.50;99.90;;;;;;6177451;28;20033;-82
2021/11/18 10:58:38;;;;;;;8.52;5.07;;;14.20;99.90;;;;;;6177567;28;20045;-82
2021/11/18 11:01:44;;;;;;;7.97;5.57;;;14.40;99.90;;;;;;6177115;28;20034;-82
2021/11/18 11:04:46;;;;;;;4.70;3.97;;;14.70;99.90;;;;;;6177468;28;20465;-82
2021/11/18 11:07:48;;;;;;;8.48;5.82;;;;;;;;;;6177066;28;20091;-81
2021/11/18 11:10:53;;;;;;;6.07;4.22;;;14.50;99.90;;;;;;6176903;28;20038;-83
2021/11/18 11:14:12;;;;;;;5.88;4.50;;;14.80;99.90;;;;;;6176699;28;20084;-81
2021/11/18 11:17:37;;;;;;;6.97;5.18;;;14.20;99.90;;;;;;6177995;28;20540;-83
2021/11/18 11:20:56;;;;;;;8.38;5.10;;;14.10;99.90;;;;;;6194574;28;20023;-82
2021/11/18 11:24:30;;;;;;;5.68;4.55;;;13.60;99.90;;;;;;6192692;28;20041;-82
2021/11/18 11:27:46;;;;;;;6.50;4.85;;;13.20;99.90;;;;;;6183244;28;20546;-82
2021/11/18 11:31:04;;;;;;;5.43;4.32;;;13.20;99.90;;;;;;6176770;28;20533;-82
2021/11/18 11:34:26;;;;;;;6.15;4.35;;;13.20;99.90;;;;;;6192757;28;20034;-81
2021/11/18 11:38:11;;;;;;;6.13;4.97;;;13.40;99.90;;;;;;6194625;28;20101;-81
2021/11/18 11:41:52;;;;;;;6.40;4.63;;;13.40;99.90;;;;;;6095633;29;20128;-82
2021/11/18 11:45:00;;;;;;;5.68;4.75;;;13.50;99.90;;;;;;6068672;29;20048;-82
2021/11/18 11:48:04;;;;;;;7.18;4.10;;;13.60;99.90;;;;;;6081344;29;20072;-83
2021/11/18 11:51:38;;;;;;;5.30;4.13;;;13.40;99.90;;;;;;6095466;29;20047;-82
2021/11/18 11:55:13;;;;;;;5.25;3.97;;;13.40;99.90;;;;;;6097430;29;20593;-84
2021/11/18 11:58:26;;;;;;;9.23;4.70;;;13.50;99.90;;;;;;6053699;29;20448;-83
2021/11/18 12:01:56;;;;;;;5.75;4.60;;;13.40;99.90;;;;;;6060507;29;20059;-83
2021/11/18 12:05:12;;;;;;;5.03;4.13;;;13.30;99.90;;;;;;6076343;29;20064;-82
2021/11/18 12:08:27;;;;;;;4.35;3.95;;;13.00;99.90;;;;;;6059126;29;20076;-81
2021/11/18 12:11:46;;;;;;;4.97;4.15;;;13.10;99.90;;;;;;6076406;29;20217;-82
2021/11/18 12:14:46;;;;;;;5.57;4.38;;;13.00;99.90;;;;;;6076175;29;20041;-83
2021/11/18 12:17:50;;;;;;;6.15;3.90;;;12.70;99.90;;;;;;6088760;29;20144;-83
2021/11/18 12:20:51;;;;;;;4.20;3.50;;;13.10;99.90;;;;;;6099395;29;20080;-82
2021/11/18 12:24:05;;;;;;;4.53;3.20;;;13.10;99.90;;;;;;6099299;29;20035;-81
2021/11/18 12:27:24;;;;;;;5.63;2.70;;;13.10;99.90;;;;;;6102782;29;20044;-84
2021/11/18 12:30:36;;;;;;;7.03;3.28;;;;;;;;;;6099100;29;20028;-82
2021/11/18 12:33:51;;;;;;;3.78;3.30;;;13.10;99.90;;;;;;6107699;28;20117;-81
2021/11/18 12:37:14;;;;;;;2.92;2.63;;;13.00;99.90;;;;;;6179925;28;20500;-82
2021/11/18 12:40:14;;;;;;;;;;;13.70;99.90;;;;;;6180783;28;20030;-83
2021/11/18 12:43:52;;;;;;;3.05;2.75;;;12.90;99.90;;;;;;6198316;28;19992;-87
2021/11/18 12:46:58;;;;;;;3.65;2.90;;;12.90;99.90;;;;;;6197446;28;20061;-83
2021/11/18 12:50:06;;;;;;;5.68;3.25;;;12.80;99.90;;;;;;6197964;28;20030;-82
2021/11/18 12:53:17;;;;;;;6.43;3.40;;;12.70;99.90;;;;;;6181094;28;20369;-85
2021/11/18 12:56:30;;;;;;;5.78;4.22;;;12.70;99.90;;;;;;6198133;28;20038;-84
2021/11/18 12:59:43;;;;;;;6.13;4.03;;;12.50;99.90;;;;;;6179648;28;20046;-83
2021/11/18 13:02:45;;;;;;;5.35;4.15;;;12.30;99.90;;;;;;6197281;28;20393;-82
2021/11/18 13:05:54;;;;;;;7.30;5.00;;;12.40;99.90;;;;;;6179945;28;20030;-85
2021/11/18 13:08:56;;;;;;;4.95;3.97;;;12.30;99.90;;;;;;6164541;28;20038;-86
2021/11/18 13:11:58;;;;;;;5.93;5.10;;;12.40;99.90;;;;;;6179794;28;20030;-87
2021/11/18 13:15:12;;;;;;;6.55;4.68;;;12.10;99.90;;;;;;6179801;28;20038;-83
2021/11/18 13:18:28;;;;;;;7.72;5.97;;;12.10;99.90;;;;;;6179890;28;20037;-83
2021/11/18 13:22:10;;;;;;;7.55;6.05;;;12.00;99.90;;;;;;6197192;28;20184;-86
2021/11/18 13:25:13;;;;;;;6.70;5.47;;;11.90;99.90;;;;;;6103678;28;20040;-81
2021/11/18 13:28:42;;;;;;;8.60;5.82;;;11.70;99.90;;;;;;6179461;28;20066;-82
2021/11/18 13:31:51;;;;;;;6.35;5.63;;;11.80;99.90;;;;;;6168041;28;20081;-82
2021/11/18 13:35:06;;;;;;;6.82;4.85;;;11.90;99.90;;;;;;6178918;28;20030;-84
2021/11/18 13:38:12;;;;;;;6.85;5.60;;;11.60;99.90;;;;;;6178686;28;20034;-83
2021/11/18 13:41:14;;;;;;;6.95;5.60;;;11.60;99.90;;;;;;6162825;28;20042;-85
2021/11/18 13:44:30;;;;;;;;;;;11.40;99.90;;;;;;6163382;28;20031;-83
2021/11/18 13:47:32;;;;;;;6.35;5.45;;;11.50;99.90;;;;;;6196360;28;19921;-82
2021/11/18 13:50:52;;;;;;;;;;;11.40;99.90;;;;;;6180420;28;20027;-83
2021/11/18 13:53:55;;;;;;;7.15;6.20;;;11.20;99.90;;;;;;6178842;28;19929;-85
2021/11/18 13:57:00;;;;;;;7.72;5.65;;;11.10;99.90;;;;;;6179076;28;20042;-86
2021/11/18 14:00:40;;;;;;;8.15;5.63;;;11.20;99.90;;;;;;6178567;28;20096;-86
2021/11/18 14:03:48;;;;;;;7.18;5.20;;;10.90;99.90;;;;;;6191730;28;20050;-85
2021/11/18 14:06:51;;;;;;;8.02;6.15;;;11.00;99.90;;;;;;6178826;28;20035;-83
2021/11/18 14:09:58;;;;;;;6.50;5.50;;;9.90;99.90;;;;;;6178785;28;20050;-86
2021/11/18 14:13:23;;;;;;;6.60;5.65;;;10.60;99.90;;;;;;6178740;28;20034;-84
2021/11/18 14:16:30;;;;;;;5.95;4.88;;;10.90;99.90;;;;;;6159306;28;20035;-82
2021/11/18 14:19:31;;;;;;;6.55;5.85;;;10.60;99.90;;;;;;6178537;28;20027;-84
2021/11/18 14:22:33;;;;;;;8.40;5.85;;;10.60;99.90;;;;;;6162180;28;20085;-83
2021/11/18 14:25:41;;;;;;;9.43;6.77;;;10.40;99.90;;;;;;6162459;28;20027;-84
2021/11/18 14:28:53;;;;;;;6.72;5.65;;;10.30;99.90;;;;;;6178555;28;21032;-83
2021/11/18 14:31:53;;;;;;;7.47;5.80;;;10.30;99.90;;;;;;6178103;28;20030;-85
2021/11/18 14:35:21;;;;;;;9.70;6.30;;;10.10;99.90;;;;;;6195632;28;20081;-83
2021/11/18 14:38:53;;;;;;;9.30;5.65;;;10.20;99.90;;;;;;6194196;28;20046;-83
2021/11/18 14:42:00;;;;;;;8.85;6.63;;;10.10;99.90;;;;;;6179260;28;20060;-83
2021/11/18 14:45:10;;;;;;;7.60;6.32;;;10.00;99.90;;;;;;6177703;28;20366;-82
2021/11/18 14:48:14;;;;;;;8.45;6.32;;;9.70;99.90;;;;;;6177474;28;20084;-84
2021/11/18 14:51:27;;;;;;;7.35;6.18;;;9.80;99.90;;;;;;6193461;28;20540;-85
2021/11/18 14:54:33;;;;;;;7.85;5.90;;;9.70;99.90;;;;;;6194756;28;20045;-83
2021/11/18 14:57:34;;;;;;;7.18;6.10;;;;;;;;;;6161536;28;20092;-85
2021/11/18 15:00:51;;;;;;;10.02;6.70;;;9.60;99.90;;;;;;6177526;28;20544;-84
2021/11/18 15:04:00;;;;;;;9.45;6.78;;;9.50;99.90;;;;;;6195397;28;20088;-82
2021/11/18 15:07:03;;;;;;;9.52;6.22;;;9.40;99.90;;;;;;6177227;28;20085;-83
2021/11/18 15:10:12;;;;;;;8.20;6.65;;;9.40;99.90;;;;;;6177536;28;20034;-85
2021/11/18 15:13:13;;;;;;;7.38;6.30;;;9.30;99.90;;;;;;6178151;28;20037;-83
2021/11/18 15:16:14;;;;;;;8.73;5.65;;;9.20;99.90;;;;;;6160970;28;20453;-86
2021/11/18 15:19:14;;;;;;;7.43;6.10;;;9.00;99.90;;;;;;6177142;28;20042;-82
2021/11/18 15:22:17;;;;;;;8.23;6.60;;;8.90;99.90;;;;;;6177147;28;20030;-85
2021/11/18 15:25:19;;;;;;;9.55;6.82;;;9.20;99.90;;;;;;6177326;28;20034;-83
2021/11/18 15:28:21;;;;;;;11.32;7.38;;;9.30;99.90;;;;;;6164217;28;20133;-83
2021/11/18 15:31:23;;;;;;;9.05;6.43;;;8.80;99.90;;;;;;6181784;28;20030;-82
2021/11/18 15:34:23;;;;;;;8.90;6.60;;;9.10;99.90;;;;;;6165970;28;20074;-84
2021/11/18 15:37:25;;;;;;;8.93;7.75;;;8.50;99.90;;;;;;6165733;28;20374;-84
2021/11/18 15:40:27;;;;;;;13.60;6.90;;;;;;;;;;6181913;28;20464;-83
2021/11/18 15:43:28;;;;;;;8.25;6.40;;;8.40;99.90;;;;;;6186992;28;20026;-82
2021/11/18 15:46:29;;;;;;;7.90;6.03;;;8.30;99.90;;;;;;6181609;28;20058;-82
2021/11/18 15:49:30;;;;;;;8.32;6.50;;;;;;;;;;6165881;28;20026;-84
2021/11/18 15:52:33;;;;;;;12.25;6.53;;;8.00;99.90;;;;;;6165883;28;20019;-83
2021/11/18 15:55:35;;;;;;;9.35;6.78;;;8.30;99.90;;;;;;6181714;28;20027;-83
2021/11/18 15:58:36;;;;;;;8.15;6.30;;;;;;;;;;6165500;28;20125;-84
2021/11/18 16:01:38;;;;;;;10.52;6.47;;;7.90;99.90;;;;;;6165747;28;20154;-82
2021/11/18 16:04:41;;;;;;;13.38;10.52;;;8.10;99.90;;;;;;6181207;28;20066;-83
2021/11/18 16:07:43;;;;;;;11.68;9.43;;;7.60;99.90;;;;;;6181206;28;20142;-85
2021/11/18 16:10:51;;;;;;;9.32;7.47;;;7.40;99.90;;;;;;6181909;28;20031;-82
2021/11/18 16:13:58;;;;;;;10.65;6.90;;;7.30;99.90;;;;;;6181659;28;20416;-84
2021/11/18 16:17:16;;;;;;;15.30;10.63;;;7.60;99.90;;;;;;6180967;28;20045;-82
2021/11/18 16:20:21;;;;;;;15.93;10.93;;;7.30;99.90;;;;;;6165223;28;20092;-84
2021/11/18 16:23:23;;;;;;;8.27;6.30;;;7.80;99.90;;;;;;6164669;28;20034;-83
2021/11/18 16:26:25;;;;;;;11.25;7.00;;;6.80;99.90;;;;;;6179515;28;20033;-85
2021/11/18 16:29:29;;;;;;;11.63;6.90;;;7.00;99.90;;;;;;6181048;28;20481;-85
2021/11/18 16:32:29;;;;;;;12.95;7.88;;;7.00;99.90;;;;;;6164649;28;20270;-85
2021/11/18 16:35:30;;;;;;;14.00;9.02;;;8.70;99.90;;;;;;6163926;28;20092;-82
2021/11/18 16:38:34;;;;;;;10.00;8.38;;;8.60;99.90;;;;;;6178889;28;20551;-85